TimeMDT,TemperatureF,Dew PointF,Humidity,Sea Level PressureIn,VisibilityMPH,Wind Direction,Wind SpeedMPH,Gust SpeedMPH,PrecipitationIn,Events,Conditions,WindDirDegrees,DateUTC
12:53 AM,62.1,35.1,37,29.74,10.0,SSW,12.7,-,N/A,,Mostly Cloudy,200,2013-05-16 06:53:00
1:53 AM,62.1,34.0,35,29.74,10.0,SSW,10.4,-,N/A,,Mostly Cloudy,210,2013-05-16 07:53:00
2:53 AM,59.0,35.1,41,29.74,10.0,South,11.5,-,N/A,,Mostly Cloudy,190,2013-05-16 08:53:00
3:53 AM,55.0,36.0,49,29.75,10.0,SSW,10.4,-,N/A,,Clear,210,2013-05-16 09:53:00
4:53 AM,57.9,35.1,42,29.74,10.0,SW,12.7,-,N/A,,Scattered Clouds,220,2013-05-16 10:53:00
5:53 AM,57.0,34.0,42,29.74,10.0,SSW,12.7,-,N/A,,Overcast,210,2013-05-16 11:53:00
6:53 AM,55.9,34.0,44,29.76,10.0,SSW,13.8,-,0.00,,Mostly Cloudy,210,2013-05-16 12:53:00
7:53 AM,57.9,36.0,44,29.77,10.0,SW,13.8,-,0.00,,Scattered Clouds,220,2013-05-16 13:53:00
8:53 AM,59.0,36.0,42,29.80,10.0,WSW,13.8,-,N/A,,Scattered Clouds,240,2013-05-16 14:53:00
9:53 AM,63.0,37.0,38,29.80,10.0,WSW,17.3,-,N/A,,Clear,250,2013-05-16 15:53:00
10:53 AM,63.0,37.9,40,29.80,10.0,West,16.1,20.7,N/A,,Unknown,270,2013-05-16 16:53:00
11:53 AM,66.0,37.9,36,29.79,10.0,West,18.4,-,0.09,,Clear,280,2013-05-16 17:53:00
12:53 PM,64.0,37.0,37,29.78,10.0,West,18.4,-,N/A,,Unknown,280,2013-05-16 18:53:00
1:53 PM,62.1,39.0,43,29.79,10.0,West,15.0,-,N/A,,Unknown,260,2013-05-16 19:53:00
2:53 PM,57.9,46.0,65,29.82,10.0,West,12.7,-,0.00,Rain,Light Rain,270,2013-05-16 20:53:00
4:53 PM,59.0,45.0,60,29.80,10.0,SW,5.8,-,0.00,,Overcast,220,2013-05-16 22:53:00
5:53 PM,57.9,45.0,62,29.79,10.0,South,3.5,-,0.00,,Overcast,180,2013-05-16 23:53:00
6:53 PM,59.0,45.0,60,29.77,10.0,Calm,Calm,-,0.00,,Overcast,0,2013-05-17 00:53:00
7:53 PM,59.0,46.0,62,29.75,10.0,East,3.5,-,N/A,,Clear,80,2013-05-17 01:53:00
8:53 PM,55.0,46.0,72,29.76,10.0,East,4.6,-,N/A,,Scattered Clouds,80,2013-05-17 02:53:00
9:53 PM,54.0,46.9,77,29.76,10.0,ESE,4.6,-,0.00,,Overcast,120,2013-05-17 03:53:00
10:53 PM,54.0,48.0,80,29.77,10.0,Calm,Calm,-,0.01,Rain,Light Rain,0,2013-05-17 04:53:00
11:53 PM,54.0,48.9,83,29.77,8.0,SSW,8.1,-,0.01,Rain,Light Rain,200,2013-05-17 05:53:00